createdAt,value
2023-02-05T00:16:15.196Z,3.4
2023-02-05T00:31:27.648Z,2.6
2023-02-05T00:46:37.184Z,2.4
2023-02-05T01:01:48.223Z,2.2
2023-02-05T01:16:59.140Z,2.2
2023-02-05T01:32:09.362Z,2.1
2023-02-05T01:47:18.766Z,2.1
2023-02-05T02:02:28.853Z,2.1
2023-02-05T02:17:38.094Z,1.9
2023-02-05T02:32:47.181Z,1.7
2023-02-05T02:47:56.630Z,1.7
2023-02-05T03:03:09.102Z,1.7
2023-02-05T03:18:18.098Z,1.7
2023-02-05T03:33:27.647Z,1.8
2023-02-05T03:48:36.959Z,1.9
2023-02-05T04:03:46.592Z,1.8
2023-02-05T04:18:59.350Z,2
2023-02-05T04:34:08.412Z,2
2023-02-05T04:49:20.584Z,2
2023-02-05T05:04:30.657Z,2
2023-02-05T05:19:39.953Z,2
2023-02-05T05:34:50.113Z,2.1
2023-02-05T05:49:59.752Z,2.1
2023-02-05T06:05:09.114Z,2
2023-02-05T06:20:18.873Z,2.1
2023-02-05T06:35:28.214Z,2.1
2023-02-05T06:50:37.792Z,2
2023-02-05T07:05:47.386Z,2.1
2023-02-05T07:20:58.823Z,2.1
2023-02-05T07:36:08.307Z,2.3
2023-02-05T07:51:18.004Z,2.3
2023-02-05T08:06:27.419Z,2.5
2023-02-05T08:21:37.100Z,2.6
2023-02-05T08:36:46.280Z,2.6
2023-02-05T08:51:56.071Z,2.6
2023-02-05T09:07:05.620Z,2.7
2023-02-05T09:22:15.253Z,2.6
2023-02-05T09:37:24.069Z,2.8
2023-02-05T09:52:33.430Z,2.8
2023-02-05T10:07:43.204Z,2.9
2023-02-05T10:22:52.935Z,2.9
2023-02-05T10:38:03.844Z,3
2023-02-05T10:53:15.323Z,3
2023-02-05T11:08:24.505Z,3.2
2023-02-05T11:23:34.302Z,3.4
2023-02-05T11:38:43.974Z,3.4
2023-02-05T11:53:54.714Z,3.5
2023-02-05T12:09:04.591Z,3.6
2023-02-05T12:24:14.334Z,3.7
2023-02-05T12:39:23.792Z,3.7
2023-02-05T12:54:34.132Z,3.8
2023-02-05T13:09:43.884Z,3.9
2023-02-05T13:24:53.691Z,3.9
2023-02-05T13:40:04.487Z,4.1
2023-02-05T13:55:13.781Z,4
2023-02-05T14:10:23.182Z,4.1
2023-02-05T14:25:32.475Z,4.1
2023-02-05T14:40:43.284Z,4.2
2023-02-05T14:55:52.819Z,4.2
2023-02-05T15:11:02.491Z,4.1
2023-02-05T15:26:13.036Z,4.1
2023-02-05T15:41:21.475Z,4
2023-02-05T15:56:30.550Z,3.9
2023-02-05T16:11:41.900Z,3.8
2023-02-05T16:26:50.922Z,3.8
2023-02-05T16:41:59.552Z,3.8
2023-02-05T16:57:08.882Z,3.7
2023-02-05T17:12:18.624Z,3.7
2023-02-05T17:27:28.432Z,3.7
2023-02-05T17:42:38.892Z,3.7
2023-02-05T17:57:48.553Z,3.7
2023-02-05T18:12:58.993Z,3.7
2023-02-05T18:28:08.717Z,3.6
2023-02-05T18:43:18.933Z,3.6
2023-02-05T18:58:28.785Z,3.6
2023-02-05T19:13:38.517Z,3.5
2023-02-05T19:28:48.166Z,3.4
2023-02-05T19:43:57.360Z,3.5
2023-02-05T19:59:05.768Z,3.4
2023-02-05T20:14:15.405Z,3.5
2023-02-05T20:29:24.772Z,3.5
2023-02-05T20:44:40.523Z,3.6
2023-02-05T20:59:50.154Z,3.6
2023-02-05T21:15:00.129Z,3.6
2023-02-05T21:30:09.996Z,3.6
2023-02-05T21:45:20.222Z,3.6
2023-02-05T22:00:29.836Z,3.6
2023-02-05T22:15:39.404Z,3.7
2023-02-05T22:30:49.050Z,3.7
2023-02-05T22:45:59.483Z,3.7
2023-02-05T23:01:09.556Z,3.7
2023-02-05T23:16:18.800Z,3.7
2023-02-05T23:31:28.829Z,3.7
2023-02-05T23:46:38.545Z,3.6
